Time;durP1;ratioP1;P1;durP2;ratioP2;P2;SDS_P1;SDS_P2;PMS_P1;PMS_P2;Temp;Humidity;BMP_temperature;BMP_pressure;BME280_temperature;BME280_humidity;BME280_pressure;Samples;Min_cycle;Max_cycle;Signal;HPM_P1;HPM_P2
2024/01/18 00:00:27;;;;;;;;;;;179.20;2252.80;;;;;;4889604;29;19907;-78
2024/01/18 00:02:52;;;;;;;;;;;179.20;2252.80;;;;;;4918956;29;19969;-78
2024/01/18 00:05:18;;;;;;;;;;;179.20;2252.80;;;;;;4918561;29;20383;-78
2024/01/18 00:07:44;;;;;;;;;;;179.20;2252.80;;;;;;4901889;29;19950;-78
2024/01/18 00:10:10;;;;;;;;;;;179.20;2252.80;;;;;;4917833;29;20054;-78
2024/01/18 00:12:37;;;;;;;;;;;179.20;2252.80;;;;;;4902026;29;19907;-78
2024/01/18 00:15:03;;;;;;;;;;;179.20;2252.80;;;;;;4902030;29;19907;-77
2024/01/18 00:17:28;;;;;;;;;;;179.30;2252.80;;;;;;4901417;29;20281;-78
2024/01/18 00:19:54;;;;;;;;;;;179.30;2252.80;;;;;;4917499;29;19916;-77
2024/01/18 00:22:20;;;;;;;;;;;179.30;2252.80;;;;;;4918416;29;19935;-78
2024/01/18 00:24:45;;;;;;;;;;;179.40;2252.80;;;;;;4901144;29;19907;-78
2024/01/18 00:27:11;;;;;;;;;;;179.40;2252.80;;;;;;4900901;29;19915;-77
2024/01/18 00:29:37;;;;;;;;;;;179.40;2252.80;;;;;;4918205;29;19931;-77
2024/01/18 00:32:03;;;;;;;;;;;179.50;2252.80;;;;;;4916389;29;19907;-78
2024/01/18 00:34:28;;;;;;;;;;;179.50;2252.80;;;;;;4917754;29;19971;-78
2024/01/18 00:36:54;;;;;;;;;;;179.50;2252.80;;;;;;4918110;29;19907;-78
2024/01/18 00:39:21;;;;;;;;;;;179.60;2252.80;;;;;;4918129;29;20282;-78
2024/01/18 00:41:49;;;;;;;;;;;179.60;2252.80;;;;;;4913911;29;19915;-77
2024/01/18 00:44:15;;;;;;;;;;;179.60;2252.80;;;;;;4916884;29;19907;-77
2024/01/18 00:46:41;;;;;;;;;;;179.70;2252.80;;;;;;4900743;29;20061;-78
2024/01/18 00:49:06;;;;;;;;;;;179.70;2252.80;;;;;;4916994;29;20357;-78
2024/01/18 00:51:32;;;;;;;;;;;179.70;2252.80;;;;;;4907063;29;19920;-77
2024/01/18 00:53:58;;;;;;;;;;;179.60;2252.80;;;;;;4911522;29;19974;-78
2024/01/18 00:56:23;;;;;;;;;;;179.80;2252.80;;;;;;4924693;29;19907;-79
2024/01/18 00:58:49;;;;;;;;;;;179.80;2252.80;;;;;;4901995;29;19914;-79
2024/01/18 01:01:15;;;;;;;;;;;179.80;2252.80;;;;;;4902352;29;19907;-78
2024/01/18 01:03:41;;;;;;;;;;;179.90;2252.80;;;;;;4916491;29;19915;-78
2024/01/18 01:06:10;;;;;;;;;;;179.90;2252.80;;;;;;4900945;29;19914;-78
2024/01/18 01:08:36;;;;;;;;;;;180.00;2252.80;;;;;;4900562;29;19915;-78
2024/01/18 01:11:05;;;;;;;;;;;180.00;2252.80;;;;;;4900830;29;19914;-78
2024/01/18 01:13:31;;;;;;;;;;;180.00;2252.80;;;;;;4888577;29;19966;-78
2024/01/18 01:15:57;;;;;;;;;;;179.90;2252.80;;;;;;4917189;29;19990;-79
2024/01/18 01:18:22;;;;;;;;;;;180.00;2252.80;;;;;;4917352;29;19946;-78
2024/01/18 01:20:48;;;;;;;;;;;180.00;2252.80;;;;;;4900091;29;20290;-79
2024/01/18 01:23:14;;;;;;;;;;;180.00;2252.80;;;;;;4916149;29;20132;-78
2024/01/18 01:25:40;;;;;;;;;;;180.00;2252.80;;;;;;4900301;29;19950;-77
2024/01/18 01:28:05;;;;;;;;;;;180.00;2252.80;;;;;;4900668;29;20001;-79
2024/01/18 01:30:31;;;;;;;;;;;180.10;2252.80;;;;;;4917209;29;19911;-78
2024/01/18 01:32:57;;;;;;;;;;;180.10;2252.80;;;;;;4900448;29;19967;-78
2024/01/18 01:35:22;;;;;;;;;;;180.10;2252.80;;;;;;4900568;29;19907;-78
2024/01/18 01:37:48;;;;;;;;;;;180.10;2252.80;;;;;;4900454;29;19998;-78
2024/01/18 01:40:14;;;;;;;;;;;180.10;2252.80;;;;;;4900385;29;19913;-78
2024/01/18 01:42:39;;;;;;;;;;;180.10;2252.80;;;;;;4900313;29;19930;-78
2024/01/18 01:45:06;;;;;;;;;;;204.80;2252.80;;;;;;4916067;29;19907;-78
2024/01/18 01:47:31;;;;;;;;;;;204.80;2252.80;;;;;;4900565;29;19919;-78
2024/01/18 01:49:57;;;;;;;;;;;204.90;2252.80;;;;;;4900245;29;19943;-78
2024/01/18 01:52:23;;;;;;;;;;;204.90;2252.80;;;;;;4900086;29;19907;-78
2024/01/18 01:54:49;;;;;;;;;;;204.90;2252.80;;;;;;4900475;29;19907;-78
2024/01/18 01:57:16;;;;;;;;;;;204.90;2252.80;;;;;;4916743;29;19930;-78
2024/01/18 01:59:41;;;;;;;;;;;204.90;2252.80;;;;;;4900353;29;19911;-77
2024/01/18 02:02:07;;;;;;;;;;;204.90;2252.80;;;;;;4899930;29;20001;-78
2024/01/18 02:04:33;;;;;;;;;;;205.00;2252.80;;;;;;4900572;29;19907;-78
2024/01/18 02:06:58;;;;;;;;;;;205.00;2252.80;;;;;;4900065;29;20318;-78
2024/01/18 02:09:24;;;;;;;;;;;205.00;2252.80;;;;;;4917298;29;19966;-77
2024/01/18 02:11:50;;;;;;;;;;;205.00;2252.80;;;;;;4900039;29;20015;-79
2024/01/18 02:14:16;;;;;;;;;;;205.00;2252.80;;;;;;4900207;29;19907;-78
2024/01/18 02:16:41;;;;;;;;;;;205.00;2252.80;;;;;;4899809;29;20006;-77
2024/01/18 02:19:07;;;;;;;;;;;205.00;2252.80;;;;;;4900088;29;19935;-78
2024/01/18 02:21:33;;;;;;;;;;;205.00;2252.80;;;;;;4916597;29;20381;-78
2024/01/18 02:24:05;;;;;;;;;;;205.20;2252.80;;;;;;4900372;29;20028;-78
2024/01/18 02:26:31;;;;;;;;;;;205.20;2252.80;;;;;;4903614;29;19911;-78
2024/01/18 02:28:57;;;;;;;;;;;205.20;2252.80;;;;;;4900291;29;19907;-76
2024/01/18 02:31:24;;;;;;;;;;;205.00;2252.80;;;;;;4915283;29;19923;-77
2024/01/18 02:33:50;;;;;;;;;;;205.20;2252.80;;;;;;4909921;29;20239;-78
2024/01/18 02:36:17;;;;;;;;;;;205.20;2252.80;;;;;;4903634;29;19946;-78
2024/01/18 02:38:43;;;;;;;;;;;230.40;2252.80;;;;;;4920100;29;19907;-77
2024/01/18 02:41:08;;;;;;;;;;;205.20;2252.80;;;;;;4903285;29;19907;-78
2024/01/18 02:43:34;;;;;;;;;;;205.10;2252.80;;;;;;4918838;29;19907;-76
2024/01/18 02:46:00;;;;;;;;;;;205.10;2252.80;;;;;;4919924;29;19907;-78
2024/01/18 02:48:25;;;;;;;;;;;205.10;2252.80;;;;;;4919645;29;19963;-77
2024/01/18 02:50:51;;;;;;;;;;;205.20;2252.80;;;;;;4918672;29;19907;-77
2024/01/18 02:53:20;;;;;;;;;;;205.20;2252.80;;;;;;4918861;29;20266;-77
2024/01/18 02:55:45;;;;;;;;;;;205.20;2252.80;;;;;;4919963;29;20043;-77
2024/01/18 02:58:11;;;;;;;;;;;205.20;2252.80;;;;;;4903061;29;19974;-77
2024/01/18 03:00:38;;;;;;;;;;;205.20;2252.80;;;;;;4920234;29;19930;-77
2024/01/18 03:03:04;;;;;;;;;;;205.30;2252.80;;;;;;4902147;29;19907;-77
2024/01/18 03:05:30;;;;;;;;;;;205.40;2252.80;;;;;;4919876;29;19933;-78
2024/01/18 03:07:55;;;;;;;;;;;205.40;2252.80;;;;;;4919409;29;19922;-78
2024/01/18 03:10:22;;;;;;;;;;;205.50;2252.80;;;;;;4920179;29;19918;-78
2024/01/18 03:12:47;;;;;;;;;;;205.50;2252.80;;;;;;4919558;29;20274;-77
2024/01/18 03:15:13;;;;;;;;;;;205.60;2252.80;;;;;;4920024;29;19911;-78
2024/01/18 03:17:38;;;;;;;;;;;205.60;2252.80;;;;;;4919193;29;19907;-79
2024/01/18 03:20:07;;;;;;;;;;;205.60;2252.80;;;;;;4902008;29;19946;-78
2024/01/18 03:22:41;;;;;;;;;;;205.70;2252.80;;;;;;4919350;29;19915;-77
2024/01/18 03:25:07;;;;;;;;;;;205.70;2252.80;;;;;;4919520;29;19911;-78
2024/01/18 03:27:33;;;;;;;;;;;205.60;2252.80;;;;;;4902249;29;19920;-78
2024/01/18 03:29:59;;;;;;;;;;;205.70;2252.80;;;;;;4919761;29;20033;-79
2024/01/18 03:32:24;;;;;;;;;;;230.40;2252.80;;;;;;4890059;29;20311;-80
2024/01/18 03:34:50;;;;;;;;;;;230.40;2252.80;;;;;;4919249;29;20250;-78
2024/01/18 03:37:16;;;;;;;;;;;230.50;2252.80;;;;;;4902105;29;19907;-78
2024/01/18 03:39:41;;;;;;;;;;;230.50;2252.80;;;;;;4902134;29;19911;-77
2024/01/18 03:42:07;;;;;;;;;;;230.50;2252.80;;;;;;4918922;29;20285;-78
2024/01/18 03:44:33;;;;;;;;;;;230.60;2252.80;;;;;;4902112;29;19914;-78
2024/01/18 03:47:00;;;;;;;;;;;230.60;2252.80;;;;;;4918106;29;19915;-79
2024/01/18 03:49:25;;;;;;;;;;;230.60;2252.80;;;;;;4902096;29;19907;-79
2024/01/18 03:51:51;;;;;;;;;;;230.60;2252.80;;;;;;4901831;29;19919;-78
2024/01/18 03:54:18;;;;;;;;;;;230.60;2252.80;;;;;;4919303;29;19935;-78
2024/01/18 03:56:44;;;;;;;;;;;230.60;2252.80;;;;;;4918912;29;19946;-79
2024/01/18 03:59:13;;;;;;;;;;;230.60;2252.80;;;;;;4917820;29;19998;-78
2024/01/18 04:01:39;;;;;;;;;;;230.60;2252.80;;;;;;4918680;29;19907;-79
2024/01/18 04:04:04;;;;;;;;;;;230.60;2252.80;;;;;;4901968;29;19929;-78
2024/01/18 04:06:30;;;;;;;;;;;230.60;2252.80;;;;;;4918415;29;20425;-78
2024/01/18 04:08:55;;;;;;;;;;;230.60;2252.80;;;;;;4906811;29;19911;-79
2024/01/18 04:11:22;;;;;;;;;;;230.60;2252.80;;;;;;4917260;29;19997;-78
2024/01/18 04:13:48;;;;;;;;;;;230.60;2252.80;;;;;;4909106;29;19932;-77
2024/01/18 04:16:13;;;;;;;;;;;230.50;2252.80;;;;;;4933576;29;19907;-77
2024/01/18 04:18:39;;;;;;;;;;;230.50;2252.80;;;;;;4911450;29;19907;-78
2024/01/18 04:21:05;;;;;;;;;;;230.50;2252.80;;;;;;4916753;29;19926;-78
2024/01/18 04:23:30;;;;;;;;;;;230.50;2252.80;;;;;;4917987;29;19938;-78
2024/01/18 04:25:56;;;;;;;;;;;230.50;2252.80;;;;;;4918163;29;20409;-78
2024/01/18 04:28:22;;;;;;;;;;;230.50;2252.80;;;;;;4918285;29;19915;-78
2024/01/18 04:30:47;;;;;;;;;;;230.50;2252.80;;;;;;4901532;29;19930;-78
2024/01/18 04:33:13;;;;;;;;;;;230.50;2099.20;;;;;;4901382;29;20258;-78
2024/01/18 04:35:39;;;;;;;;;;;230.50;2252.80;;;;;;4900850;29;19993;-78
2024/01/18 04:38:05;;;;;;;;;;;230.50;2252.80;;;;;;4901633;29;19907;-78
2024/01/18 04:40:31;;;;;;;;;;;230.40;2252.80;;;;;;4918231;29;19911;-78
2024/01/18 04:42:57;;;;;;;;;;;230.50;2252.80;;;;;;4901043;29;20009;-77
2024/01/18 04:45:23;;;;;;;;;;;230.40;2252.80;;;;;;4901242;29;19911;-77
2024/01/18 04:47:51;;;;;;;;;;;230.50;2252.80;;;;;;4901073;29;19915;-78
2024/01/18 04:50:20;;;;;;;;;;;230.50;2252.80;;;;;;4900717;29;19911;-78
2024/01/18 04:52:46;;;;;;;;;;;230.60;2252.80;;;;;;4918148;29;19954;-78
2024/01/18 04:55:12;;;;;;;;;;;230.60;2252.80;;;;;;4900970;29;19907;-78
2024/01/18 04:57:38;;;;;;;;;;;230.60;2252.80;;;;;;4917628;29;19907;-77
2024/01/18 05:00:09;;;;;;;;;;;230.60;2252.80;;;;;;4917766;29;20055;-77
2024/01/18 05:02:38;;;;;;;;;;;230.60;2252.80;;;;;;4901003;29;20029;-78
2024/01/18 05:05:06;;;;;;;;;;;230.60;2252.80;;;;;;4900866;29;19907;-78
2024/01/18 05:07:31;;;;;;;;;;;230.50;2252.80;;;;;;4917705;29;20289;-78
2024/01/18 05:09:57;;;;;;;;;;;230.50;2252.80;;;;;;4900741;29;19907;-78
2024/01/18 05:12:23;;;;;;;;;;;230.60;2252.80;;;;;;4898254;29;19970;-77
2024/01/18 05:14:48;;;;;;;;;;;230.50;2252.80;;;;;;4900140;29;20425;-77
2024/01/18 05:17:16;;;;;;;;;;;230.60;2252.80;;;;;;4899988;29;19907;-78
2024/01/18 05:19:41;;;;;;;;;;;230.60;1996.80;;;;;;4916570;29;20425;-78
2024/01/18 05:22:07;;;;;;;;;;;230.70;2252.80;;;;;;4899502;29;20018;-78
2024/01/18 05:24:33;;;;;;;;;;;230.70;2252.80;;;;;;4916654;29;19966;-78
2024/01/18 05:26:59;;;;;;;;;;;230.70;2252.80;;;;;;4900258;29;20008;-79
2024/01/18 05:29:24;;;;;;;;;;;230.80;2252.80;;;;;;4899854;29;19923;-78
2024/01/18 05:31:51;;;;;;;;;;;230.80;2252.80;;;;;;4900041;29;19963;-77
2024/01/18 05:34:17;;;;;;;;;;;230.80;2252.80;;;;;;4899357;29;19907;-79
2024/01/18 05:36:43;;;;;;;;;;;230.90;2252.80;;;;;;4900395;29;19911;-78
2024/01/18 05:39:08;;;;;;;;;;;230.80;2252.80;;;;;;4900644;29;19914;-78
2024/01/18 05:41:34;;;;;;;;;;;230.90;2252.80;;;;;;4899092;29;19911;-78
2024/01/18 05:44:00;;;;;;;;;;;230.90;2252.80;;;;;;4899633;29;19934;-78
2024/01/18 05:46:26;;;;;;;;;;;230.90;2252.80;;;;;;4900140;29;20262;-78
2024/01/18 05:48:51;;;;;;;;;;;230.90;2252.80;;;;;;4899843;29;19970;-78
2024/01/18 05:51:17;;;;;;;;;;;230.90;2252.80;;;;;;4914297;29;19962;-79
2024/01/18 05:53:42;;;;;;;;;;;230.90;2252.80;;;;;;4899231;29;19918;-79
2024/01/18 05:56:08;;;;;;;;;;;230.90;2252.80;;;;;;4900218;29;19962;-79
2024/01/18 05:58:34;;;;;;;;;;;230.90;2252.80;;;;;;4894927;29;19962;-79
2024/01/18 06:01:00;;;;;;;;;;;230.90;2252.80;;;;;;4893338;29;19974;-78
2024/01/18 06:03:26;;;;;;;;;;;230.90;2252.80;;;;;;4893044;29;19908;-78
2024/01/18 06:05:52;;;;;;;;;;;230.90;2252.80;;;;;;4894596;29;19915;-78
2024/01/18 06:08:18;;;;;;;;;;;230.90;2252.80;;;;;;4899812;29;20362;-78
2024/01/18 06:10:43;;;;;;;;;;;230.90;2252.80;;;;;;4920759;29;19913;-76
2024/01/18 06:13:12;;;;;;;;;;;231.00;2252.80;;;;;;4920044;29;19955;-83
2024/01/18 06:15:39;;;;;;;;;;;231.00;2252.80;;;;;;4903571;29;19911;-78
2024/01/18 06:18:05;;;;;;;;;;;231.00;2252.80;;;;;;4903690;29;19913;-80
2024/01/18 06:20:30;;;;;;;;;;;231.00;2252.80;;;;;;4903162;29;19919;-82
2024/01/18 06:22:58;;;;;;;;;;;231.10;2252.80;;;;;;4901167;29;20273;-80
2024/01/18 06:25:27;;;;;;;;;;;231.10;2252.80;;;;;;4903554;29;19999;-78
2024/01/18 06:27:53;;;;;;;;;;;231.10;2252.80;;;;;;4898545;29;19926;-78
2024/01/18 06:30:18;;;;;;;;;;;231.10;2252.80;;;;;;4919442;29;20285;-78
2024/01/18 06:32:44;;;;;;;;;;;231.00;2252.80;;;;;;4914702;29;19907;-80
2024/01/18 06:35:10;;;;;;;;;;;231.00;2252.80;;;;;;4902918;29;20298;-81
2024/01/18 06:37:36;;;;;;;;;;;231.00;2252.80;;;;;;4903004;29;19911;-79
2024/01/18 06:40:02;;;;;;;;;;;231.10;2252.80;;;;;;4903192;29;20365;-78
2024/01/18 06:42:28;;;;;;;;;;;231.10;2252.80;;;;;;4903127;29;19907;-79
2024/01/18 06:44:54;;;;;;;;;;;231.00;2252.80;;;;;;4902707;29;19907;-77
2024/01/18 06:47:21;;;;;;;;;;;231.10;2252.80;;;;;;4903011;29;19922;-80
2024/01/18 06:49:46;;;;;;;;;;;231.10;2252.80;;;;;;4902823;29;19933;-79
2024/01/18 06:52:13;;;;;;;;;;;231.10;2252.80;;;;;;4919398;29;20428;-76
2024/01/18 06:54:39;;;;;;;;;;;231.10;2252.80;;;;;;4919204;29;20357;-77
2024/01/18 06:57:04;;;;;;;;;;;231.10;2252.80;;;;;;4919570;29;19931;-77
2024/01/18 06:59:30;;;;;;;;;;;231.10;2252.80;;;;;;4919713;29;19963;-76
2024/01/18 07:01:55;;;;;;;;;;;231.10;2252.80;;;;;;4902363;29;20349;-77
2024/01/18 07:04:21;;;;;;;;;;;231.10;2252.80;;;;;;4902209;29;19911;-77
2024/01/18 07:06:47;;;;;;;;;;;231.10;2252.80;;;;;;4902138;29;19907;-78
2024/01/18 07:09:12;;;;;;;;;;;231.10;2252.80;;;;;;4902739;29;20373;-79
2024/01/18 07:11:38;;;;;;;;;;;231.10;2252.80;;;;;;4902226;29;19907;-79
2024/01/18 07:14:04;;;;;;;;;;;231.10;2252.80;;;;;;4901858;29;19918;-78
2024/01/18 07:16:29;;;;;;;;;;;231.10;2252.80;;;;;;4902572;29;19907;-78
2024/01/18 07:18:55;;;;;;;;;;;231.20;2252.80;;;;;;4919517;29;19950;-79
2024/01/18 07:21:21;;;;;;;;;;;231.20;2252.80;;;;;;4901772;29;19923;-80
2024/01/18 07:23:46;;;;;;;;;;;231.30;2252.80;;;;;;4906561;29;19911;-80
2024/01/18 07:26:12;;;;;;;;;;;231.30;2252.80;;;;;;4908254;29;19915;-76
2024/01/18 07:28:38;;;;;;;;;;;231.30;2252.80;;;;;;4916742;29;19915;-77
2024/01/18 07:31:03;;;;;;;;;;;231.30;2252.80;;;;;;4901693;29;19950;-80
2024/01/18 07:33:29;;;;;;;;;;;231.30;2252.80;;;;;;4913969;29;19950;-76
2024/01/18 07:35:55;;;;;;;;;;;231.30;2252.80;;;;;;4919034;29;20270;-75
2024/01/18 07:38:20;;;;;;;;;;;231.30;2252.80;;;;;;4922413;29;19907;-75
2024/01/18 07:40:46;;;;;;;;;;;231.20;2252.80;;;;;;4923404;29;19963;-80
2024/01/18 07:43:12;;;;;;;;;;;231.20;2252.80;;;;;;4918440;29;20262;-79
2024/01/18 07:45:37;;;;;;;;;;;231.20;2252.80;;;;;;4902151;29;20289;-82
2024/01/18 07:48:03;;;;;;;;;;;231.20;2252.80;;;;;;4918821;29;19915;-79
2024/01/18 07:50:29;;;;;;;;;;;231.30;2252.80;;;;;;4916883;29;19918;-80
2024/01/18 07:52:54;;;;;;;;;;;231.30;2252.80;;;;;;4910526;29;19911;-78
2024/01/18 07:55:21;;;;;;;;;;;256.00;2252.80;;;;;;4918649;29;19914;-79
2024/01/18 07:57:46;;;;;;;;;;;256.10;2252.80;;;;;;4918961;29;20388;-81
2024/01/18 08:00:12;;;;;;;;;;;256.10;2252.80;;;;;;4902039;29;19907;-81
2024/01/18 08:02:38;;;;;;;;;;;256.60;2252.80;;;;;;4902849;29;19914;-80
2024/01/18 08:05:04;;;;;;;;;;;256.20;2252.80;;;;;;4907531;29;19907;-80
2024/01/18 08:07:29;;;;;;;;;;;256.40;2176.00;;;;;;4901836;29;19922;-81
2024/01/18 08:09:55;;;;;;;;;;;256.40;1920.00;;;;;;4901534;29;20013;-79
2024/01/18 08:12:20;;;;;;;;;;;256.40;2252.80;;;;;;4901423;29;19914;-79
2024/01/18 08:14:46;;;;;;;;;;;256.30;2252.80;;;;;;4901533;29;19907;-79
2024/01/18 08:17:12;;;;;;;;;;;256.30;2252.80;;;;;;4909173;29;19997;-79
2024/01/18 08:19:39;;;;;;;;;;;256.30;2252.80;;;;;;4918565;29;19998;-80
2024/01/18 08:22:04;;;;;;;;;;;256.10;1894.40;;;;;;4896912;29;19927;-80
2024/01/18 08:24:30;;;;;;;;;;;256.30;1894.40;;;;;;4901476;29;19955;-78
2024/01/18 08:26:55;;;;;;;;;;;256.30;1920.00;;;;;;4901511;29;20388;-79
2024/01/18 08:29:21;;;;;;;;;;;256.30;2227.20;;;;;;4918012;29;19911;-79
2024/01/18 08:31:47;;;;;;;;;;;256.40;2022.40;;;;;;4905734;29;19907;-79
2024/01/18 08:34:12;;;;;;;;;;;256.40;2227.20;;;;;;4897953;29;20392;-78
2024/01/18 08:36:38;;;;;;;;;;;256.40;2176.00;;;;;;4889120;29;19908;-82
2024/01/18 08:39:03;;;;;;;;;;;256.50;2048.00;;;;;;4897961;29;19907;-80
2024/01/18 08:41:29;;;;;;;;;;;256.50;1996.80;;;;;;4917933;29;19907;-82
2024/01/18 08:43:55;;;;;;;;;;;256.60;2150.40;;;;;;4913653;29;19942;-79
2024/01/18 08:46:20;;;;;;;;;;;256.60;2048.00;;;;;;4900646;29;20364;-78
2024/01/18 08:48:46;;;;;;;;;;;256.60;1971.20;;;;;;4909279;29;19919;-78
2024/01/18 08:51:14;;;;;;;;;;;256.60;2022.40;;;;;;4900414;29;19921;-78
2024/01/18 08:53:40;;;;;;;;;;;256.70;1971.20;;;;;;4908249;29;19918;-78
2024/01/18 08:56:06;;;;;;;;;;;256.80;1971.20;;;;;;4898218;29;19907;-78
2024/01/18 08:58:32;;;;;;;;;;;256.80;2124.80;;;;;;4914238;29;19935;-79
2024/01/18 09:00:58;;;;;;;;;;;256.90;2176.00;;;;;;4908734;29;20353;-78
2024/01/18 09:03:23;;;;;;;;;;;256.90;2252.80;;;;;;4906318;29;19954;-79
2024/01/18 09:05:49;;;;;;;;;;;256.90;2201.60;;;;;;4910711;29;19907;-78
2024/01/18 09:08:15;;;;;;;;;;;256.90;2252.80;;;;;;4915009;29;19999;-78
2024/01/18 09:10:41;;;;;;;;;;;281.70;2048.00;;;;;;4911666;29;19954;-78
2024/01/18 09:13:06;;;;;;;;;;;281.70;1894.40;;;;;;4900222;29;20269;-78
2024/01/18 09:15:34;;;;;;;;;;;281.80;1945.60;;;;;;4898476;29;19923;-77
2024/01/18 09:18:00;;;;;;;;;;;281.80;2278.40;;;;;;4915210;29;19962;-78
2024/01/18 09:20:26;;;;;;;;;;;281.90;2278.40;;;;;;4908745;29;20017;-78
2024/01/18 09:22:52;;;;;;;;;;;282.00;2278.40;;;;;;4899763;29;20362;-78
2024/01/18 09:25:17;;;;;;;;;;;281.90;2278.40;;;;;;4900246;29;19949;-79
2024/01/18 09:27:44;;;;;;;;;;;281.90;1945.60;;;;;;4905183;29;20067;-78
2024/01/18 09:30:10;;;;;;;;;;;282.00;2278.40;;;;;;4903034;29;19962;-79
2024/01/18 09:32:35;;;;;;;;;;;282.00;2278.40;;;;;;4899904;29;20805;-80
2024/01/18 09:35:01;;;;;;;;;;;282.10;2278.40;;;;;;4913403;29;19911;-79
2024/01/18 09:37:27;;;;;;;;;;;282.20;2278.40;;;;;;4916336;29;19918;-80
2024/01/18 09:39:53;;;;;;;;;;;282.40;2278.40;;;;;;4917701;29;19990;-78
2024/01/18 09:42:21;;;;;;;;;;;282.50;2278.40;;;;;;4906234;29;19943;-79
2024/01/18 09:44:47;;;;;;;;;;;307.20;2304.00;;;;;;4901137;29;20357;-79
2024/01/18 09:47:15;;;;;;;;;;;282.20;2278.40;;;;;;4907665;29;20314;-77
2024/01/18 09:49:42;;;;;;;;;;;307.30;2304.00;;;;;;4920686;29;19950;-80
2024/01/18 09:52:08;;;;;;;;;;;307.30;2304.00;;;;;;4902984;29;19911;-80
2024/01/18 09:54:34;;;;;;;;;;;307.30;2304.00;;;;;;4904334;29;20349;-82
2024/01/18 09:57:01;;;;;;;;;;;307.40;2304.00;;;;;;4921112;29;19907;-83
2024/01/18 09:59:27;;;;;;;;;;;307.50;2304.00;;;;;;4920583;29;19907;-82
2024/01/18 10:01:53;;;;;;;;;;;307.60;2304.00;;;;;;4904525;29;19907;-81
2024/01/18 10:04:19;;;;;;;;;;;307.60;2304.00;;;;;;4904597;29;19907;-83
2024/01/18 10:06:45;;;;;;;;;;;307.70;2304.00;;;;;;4920162;29;19907;-83
2024/01/18 10:09:14;;;;;;;;;;;307.80;2304.00;;;;;;4908255;29;20383;-80
2024/01/18 10:11:41;;;;;;;;;;;307.90;2304.00;;;;;;4904548;29;19907;-79
2024/01/18 10:14:06;;;;;;;;;;;307.90;2304.00;;;;;;4906719;29;19922;-82
2024/01/18 10:16:33;;;;;;;;;;;307.60;2304.00;;;;;;4910388;29;19907;-79
2024/01/18 10:19:06;;;;;;;;;;;307.90;2304.00;;;;;;4902775;29;19930;-80
2024/01/18 10:21:33;;;;;;;;;;;307.90;2304.00;;;;;;4903339;29;20479;-79
2024/01/18 10:23:59;;;;;;;;;;;308.00;2304.00;;;;;;4913140;29;19911;-81
2024/01/18 10:26:34;;;;;;;;;;;308.00;2304.00;;;;;;4903501;29;20422;-83
2024/01/18 10:28:59;;;;;;;;;;;308.10;2304.00;;;;;;4899319;29;19915;-82
2024/01/18 10:31:25;;;;;;;;;;;308.10;2304.00;;;;;;4916603;29;20401;-82
2024/01/18 10:33:51;;;;;;;;;;;332.90;2329.60;;;;;;4916997;29;19911;-81
2024/01/18 10:36:17;;;;;;;;;;;332.90;2329.60;;;;;;4903953;29;19967;-81
2024/01/18 10:38:43;;;;;;;;;;;333.00;2329.60;;;;;;4920471;29;19943;-81
2024/01/18 10:41:09;;;;;;;;;;;333.10;2329.60;;;;;;4917734;29;19955;-82
2024/01/18 10:43:35;;;;;;;;;;;333.20;2329.60;;;;;;4912586;29;19911;-82
2024/01/18 10:46:01;;;;;;;;;;;333.30;2329.60;;;;;;4918043;29;20309;-82
2024/01/18 10:48:29;;;;;;;;;;;333.30;2329.60;;;;;;4909837;29;19966;-81
2024/01/18 10:50:55;;;;;;;;;;;333.40;2329.60;;;;;;4920960;29;19932;-84
2024/01/18 10:53:24;;;;;;;;;;;333.40;2329.60;;;;;;4926395;29;19911;-79
2024/01/18 10:55:51;;;;;;;;;;;333.40;2329.60;;;;;;4923624;29;20358;-81
2024/01/18 10:58:17;;;;;;;;;;;333.40;2329.60;;;;;;4911852;29;19907;-81
2024/01/18 11:00:43;;;;;;;;;;;333.40;2329.60;;;;;;4903142;29;19930;-79
2024/01/18 11:03:09;;;;;;;;;;;333.40;2329.60;;;;;;4907110;29;20370;-80
2024/01/18 11:05:35;;;;;;;;;;;333.40;2329.60;;;;;;4919096;29;20374;-80
2024/01/18 11:08:03;;;;;;;;;;;333.40;2329.60;;;;;;4911005;29;19922;-79
2024/01/18 11:10:30;;;;;;;;;;;333.40;2329.60;;;;;;4903085;29;19907;-86
2024/01/18 11:12:56;;;;;;;;;;;333.40;2329.60;;;;;;4902492;29;19914;-80
2024/01/18 11:15:22;;;;;;;;;;;333.40;2329.60;;;;;;4919083;29;19915;-78
2024/01/18 11:17:51;;;;;;;;;;;333.40;2329.60;;;;;;4919080;29;19907;-81
2024/01/18 11:20:17;;;;;;;;;;;333.40;2329.60;;;;;;4902726;29;19915;-80
2024/01/18 11:22:43;;;;;;;;;;;333.40;2329.60;;;;;;4902598;29;19907;-80
2024/01/18 11:25:09;;;;;;;;;;;333.50;2329.60;;;;;;4918673;29;19914;-79
2024/01/18 11:27:39;;;;;;;;;;;333.50;2048.00;;;;;;4919301;29;19911;-80
2024/01/18 11:30:05;;;;;;;;;;;;;;;;;;4919810;29;19911;-80
2024/01/18 11:32:31;;;;;;;;;;;333.60;1971.20;;;;;;4902249;29;19911;-80
2024/01/18 11:35:11;;;;;;;;;;;333.70;2329.60;;;;;;4901191;29;19911;-79
2024/01/18 11:37:38;;;;;;;;;;;333.70;2329.60;;;;;;4903865;29;19907;-80
2024/01/18 11:40:07;;;;;;;;;;;358.40;2329.60;;;;;;4909405;29;20358;-80
2024/01/18 11:42:33;;;;;;;;;;;358.40;2329.60;;;;;;4899029;29;19915;-79
2024/01/18 11:44:59;;;;;;;;;;;358.50;2329.60;;;;;;4914799;29;19907;-82
2024/01/18 11:47:27;;;;;;;;;;;358.50;2329.60;;;;;;4919079;29;19922;-80
2024/01/18 11:49:53;;;;;;;;;;;358.50;2329.60;;;;;;4914236;29;19923;-83
2024/01/18 11:52:21;;;;;;;;;;;358.70;2329.60;;;;;;4909271;29;19983;-83
2024/01/18 11:54:50;;;;;;;;;;;358.70;2329.60;;;;;;4917698;29;19907;-82
2024/01/18 11:57:17;;;;;;;;;;;358.80;2329.60;;;;;;4907178;29;19911;-83
2024/01/18 11:59:46;;;;;;;;;;;358.90;2329.60;;;;;;4903056;29;20001;-82
2024/01/18 12:02:12;;;;;;;;;;;358.90;2329.60;;;;;;4901747;29;20381;-83
2024/01/18 12:04:37;;;;;;;;;;;358.90;2329.60;;;;;;4919183;29;19914;-84
2024/01/18 12:07:04;;;;;;;;;;;359.00;2329.60;;;;;;4913998;29;19911;-83
2024/01/18 12:09:30;;;;;;;;;;;359.00;2329.60;;;;;;4902444;29;19914;-83
2024/01/18 12:12:00;;;;;;;;;;;359.10;2329.60;;;;;;4905371;29;19918;-83
2024/01/18 12:14:25;;;;;;;;;;;359.20;2329.60;;;;;;4901796;29;20388;-83
2024/01/18 12:16:51;;;;;;;;;;;359.20;2329.60;;;;;;4904221;29;19907;-82
2024/01/18 12:19:33;;;;;;;;;;;359.30;2329.60;;;;;;4906514;29;19911;-82
2024/01/18 12:22:02;;;;;;;;;;;359.30;2329.60;;;;;;4911360;29;20011;-78
2024/01/18 12:24:28;;;;;;;;;;;384.00;2329.60;;;;;;4911361;29;19907;-83
2024/01/18 12:26:54;;;;;;;;;;;384.00;2329.60;;;;;;4901957;29;19907;-82
2024/01/18 12:29:20;;;;;;;;;;;384.00;2329.60;;;;;;4901027;29;19911;-80
2024/01/18 12:31:49;;;;;;;;;;;384.10;2329.60;;;;;;4911284;29;19907;-81
2024/01/18 12:34:21;;;;;;;;;;;384.10;2329.60;;;;;;4913513;29;19914;-80
2024/01/18 12:36:47;;;;;;;;;;;384.10;2329.60;;;;;;4901205;29;19911;-79
2024/01/18 12:39:13;;;;;;;;;;;384.20;2329.60;;;;;;4900734;29;19986;-81
2024/01/18 12:41:39;;;;;;;;;;;384.20;2329.60;;;;;;4895059;29;19929;-81
2024/01/18 12:44:07;;;;;;;;;;;384.20;2329.60;;;;;;4915635;29;20408;-81
2024/01/18 12:46:36;;;;;;;;;;;384.10;2329.60;;;;;;4901366;29;19963;-81
2024/01/18 12:49:02;;;;;;;;;;;384.10;2329.60;;;;;;4905357;29;20295;-81
2024/01/18 12:51:28;;;;;;;;;;;384.10;2329.60;;;;;;4900561;29;19915;-80
2024/01/18 12:53:57;;;;;;;;;;;384.10;2329.60;;;;;;4906692;29;19989;-80
2024/01/18 12:56:23;;;;;;;;;;;384.10;2329.60;;;;;;4900905;29;19907;-80
2024/01/18 12:58:49;;;;;;;;;;;384.00;2329.60;;;;;;4915489;29;20005;-80
2024/01/18 13:01:32;;;;;;;;;;;384.00;2329.60;;;;;;4904047;29;19931;-81
2024/01/18 13:04:14;;;;;;;;;;;384.00;2329.60;;;;;;4901202;29;19994;-81
2024/01/18 13:06:44;;;;;;;;;;;384.10;2329.60;;;;;;4904274;29;19913;-82
2024/01/18 13:09:10;;;;;;;;;;;384.00;2329.60;;;;;;4900472;29;19915;-81
2024/01/18 13:11:36;;;;;;;;;;;384.00;2329.60;;;;;;4900746;29;19907;-80
2024/01/18 13:14:09;;;;;;;;;;;384.10;2329.60;;;;;;4917488;29;19911;-81
2024/01/18 13:16:35;;;;;;;;;;;384.10;2329.60;;;;;;4900644;29;19907;-81
2024/01/18 13:19:01;;;;;;;;;;;384.10;2329.60;;;;;;4904004;29;19907;-79
2024/01/18 13:21:27;;;;;;;;;;;384.20;2329.60;;;;;;4900241;29;19930;-80
2024/01/18 13:23:53;;;;;;;;;;;384.10;2329.60;;;;;;4900196;29;19907;-81
2024/01/18 13:26:19;;;;;;;;;;;384.20;2329.60;;;;;;4901903;29;19954;-80
2024/01/18 13:28:45;;;;;;;;;;;384.20;2329.60;;;;;;4912756;29;20396;-80
2024/01/18 13:31:10;;;;;;;;;;;384.20;2329.60;;;;;;4899590;29;19907;-80
2024/01/18 13:33:36;;;;;;;;;;;384.20;2329.60;;;;;;4917029;29;19914;-79
2024/01/18 13:36:03;;;;;;;;;;;384.20;2329.60;;;;;;4900458;29;20386;-81